createdAt,value
2024-02-14T00:01:30.264Z,7.97
2024-02-14T00:04:01.468Z,11.05
2024-02-14T00:06:31.580Z,8.48
2024-02-14T00:09:01.032Z,7.07
2024-02-14T00:11:33.188Z,6.93
2024-02-14T00:14:02.249Z,5.82
2024-02-14T00:16:32.786Z,10.48
2024-02-14T00:19:04.087Z,6.95
2024-02-14T00:21:35.384Z,6.32
2024-02-14T00:24:08.848Z,7.18
2024-02-14T00:26:38.762Z,10.82
2024-02-14T00:29:07.582Z,5.15
2024-02-14T00:31:37.245Z,5.88
2024-02-14T00:34:08.543Z,5.13
2024-02-14T00:36:37.114Z,10.10
2024-02-14T00:39:05.680Z,6.97
2024-02-14T00:41:35.067Z,9.52
2024-02-14T00:44:04.415Z,5.82
2024-02-14T00:46:33.406Z,11.20
2024-02-14T00:49:02.237Z,4.72
2024-02-14T00:51:32.429Z,8.70
2024-02-14T00:56:32.857Z,4.95
2024-02-14T00:59:02.126Z,7.07
2024-02-14T01:01:31.153Z,5.28
2024-02-14T01:03:59.823Z,10.25
2024-02-14T01:06:29.818Z,7.15
2024-02-14T01:09:01.780Z,8.35
2024-02-14T01:11:31.111Z,6.20
2024-02-14T01:13:59.650Z,6.25
2024-02-14T01:16:28.397Z,6.80
2024-02-14T01:18:58.236Z,5.90
2024-02-14T01:21:27.688Z,5.55
2024-02-14T01:23:57.060Z,9.07
2024-02-14T01:26:28.247Z,6.45
2024-02-14T01:28:57.097Z,7.88
2024-02-14T01:31:25.824Z,4.78
2024-02-14T01:33:55.188Z,6.00
2024-02-14T01:36:24.599Z,10.18
2024-02-14T01:38:53.023Z,5.82
2024-02-14T01:41:22.691Z,5.75
2024-02-14T01:43:54.407Z,6.72
2024-02-14T01:46:22.918Z,7.30
2024-02-14T01:48:51.803Z,4.13
2024-02-14T01:51:22.307Z,8.57
2024-02-14T01:53:50.627Z,5.13
2024-02-14T01:56:19.358Z,9.13
2024-02-14T01:58:47.978Z,9.50
2024-02-14T02:01:19.561Z,2.40
2024-02-14T02:03:48.751Z,7.82
2024-02-14T02:06:19.664Z,6.47
2024-02-14T02:08:49.509Z,4.25
2024-02-14T02:11:18.359Z,4.88
2024-02-14T02:13:50.159Z,4.63
2024-02-14T02:16:24.400Z,8.20
2024-02-14T02:18:56.114Z,7.05
2024-02-14T02:21:26.005Z,8.40
2024-02-14T02:23:56.265Z,4.43
2024-02-14T02:26:25.102Z,7.60
2024-02-14T02:28:54.009Z,6.53
2024-02-14T02:31:23.339Z,6.35
2024-02-14T02:33:53.362Z,6.30
2024-02-14T02:36:25.387Z,6.22
2024-02-14T02:38:56.756Z,3.88
2024-02-14T02:41:25.966Z,6.75
2024-02-14T02:43:55.798Z,5.30
2024-02-14T02:46:24.803Z,5.57
2024-02-14T02:48:56.186Z,4.80
2024-02-14T02:51:26.488Z,10.93
2024-02-14T02:53:59.316Z,4.78
2024-02-14T02:56:29.097Z,6.88
2024-02-14T02:58:57.641Z,5.13
2024-02-14T03:01:26.552Z,6.97
2024-02-14T03:03:55.317Z,9.52
2024-02-14T03:06:24.190Z,6.47
2024-02-14T03:08:53.605Z,3.50
2024-02-14T03:11:26.628Z,5.65
2024-02-14T03:13:56.415Z,5.53
2024-02-14T03:16:30.321Z,4.57
2024-02-14T03:19:00.063Z,4.55
2024-02-14T03:21:33.859Z,4.43
2024-02-14T03:24:02.801Z,7.72
2024-02-14T03:26:36.960Z,6.10
2024-02-14T03:31:37.340Z,4.57
2024-02-14T03:34:06.724Z,5.03
2024-02-14T03:36:35.970Z,6.78
2024-02-14T03:39:05.809Z,3.08
2024-02-14T03:41:40.679Z,5.43
2024-02-14T03:44:12.681Z,6.57
2024-02-14T03:46:42.406Z,2.30
2024-02-14T03:49:12.412Z,4.60
2024-02-14T03:51:42.895Z,4.97
2024-02-14T03:54:17.615Z,4.75
2024-02-14T03:56:51.083Z,6.55
2024-02-14T03:59:26.308Z,7.75
2024-02-14T04:01:59.316Z,5.65
2024-02-14T04:04:29.095Z,5.35
2024-02-14T04:06:59.938Z,7.43
2024-02-14T04:09:34.501Z,5.63
2024-02-14T04:12:12.359Z,5.03
2024-02-14T04:14:42.939Z,3.70
2024-02-14T04:17:15.436Z,1.70
2024-02-14T04:19:45.462Z,6.95
2024-02-14T04:22:16.211Z,3.45
2024-02-14T04:24:45.793Z,5.93
2024-02-14T04:27:17.514Z,5.68
2024-02-14T04:29:51.335Z,3.70
2024-02-14T04:32:24.635Z,4.28
2024-02-14T04:34:55.013Z,7.18
2024-02-14T04:37:24.173Z,5.05
2024-02-14T04:39:53.162Z,4.22
2024-02-14T04:42:24.490Z,4.40
2024-02-14T04:44:54.459Z,6.20
2024-02-14T04:47:31.701Z,4.95
2024-02-14T04:50:15.718Z,7.60
2024-02-14T04:52:45.086Z,4.40
2024-02-14T04:55:14.382Z,7.28
2024-02-14T04:57:47.474Z,5.15
2024-02-14T05:02:45.531Z,4.07
2024-02-14T05:05:15.274Z,5.82
2024-02-14T05:07:45.619Z,4.30
2024-02-14T05:10:14.947Z,4.45
2024-02-14T05:12:49.209Z,4.60
2024-02-14T05:15:19.124Z,4.65
2024-02-14T05:17:50.836Z,5.53
2024-02-14T05:20:24.681Z,8.88
2024-02-14T05:22:54.110Z,5.72
2024-02-14T05:25:23.168Z,6.57
2024-02-14T05:27:54.078Z,6.97
2024-02-14T05:30:24.218Z,8.90
2024-02-14T05:32:54.750Z,6.28
2024-02-14T05:35:25.011Z,7.05
2024-02-14T05:37:54.265Z,8.50
2024-02-14T05:40:23.132Z,7.72
2024-02-14T05:42:57.926Z,4.97
2024-02-14T05:45:27.322Z,4.80
2024-02-14T05:47:56.247Z,5.03
2024-02-14T05:50:25.204Z,6.10
2024-02-14T05:52:53.829Z,7.28
2024-02-14T05:55:22.538Z,5.43
2024-02-14T05:57:54.504Z,8.63
2024-02-14T06:00:27.694Z,10.95
2024-02-14T06:02:57.797Z,5.72
2024-02-14T06:05:26.308Z,6.93
2024-02-14T06:07:54.953Z,5.05
2024-02-14T06:10:23.910Z,5.68
2024-02-14T06:12:58.188Z,6.07
2024-02-14T06:15:28.304Z,5.40
2024-02-14T06:17:57.755Z,5.25
2024-02-14T06:20:26.589Z,6.20
2024-02-14T06:23:02.251Z,11.27
2024-02-14T06:25:34.361Z,13.65
2024-02-14T06:28:05.585Z,6.50
2024-02-14T06:30:36.508Z,6.35
2024-02-14T06:33:06.468Z,5.50
2024-02-14T06:35:35.733Z,8.50
2024-02-14T06:38:05.842Z,5.95
2024-02-14T06:40:35.706Z,6.60
2024-02-14T06:43:09.375Z,8.07
2024-02-14T06:45:38.428Z,7.50
2024-02-14T06:48:08.323Z,7.05
2024-02-14T06:50:39.516Z,6.78
2024-02-14T06:53:09.025Z,13.88
2024-02-14T06:55:42.296Z,6.97
2024-02-14T06:58:13.270Z,8.50
2024-02-14T07:00:42.497Z,8.50
2024-02-14T07:03:15.245Z,12.18
2024-02-14T07:05:44.426Z,7.53
2024-02-14T07:08:13.437Z,6.40
2024-02-14T07:10:42.350Z,8.65
2024-02-14T07:13:15.805Z,5.70
2024-02-14T07:15:45.197Z,6.90
2024-02-14T07:18:15.085Z,6.38
2024-02-14T07:20:45.098Z,8.57
2024-02-14T07:23:13.723Z,6.45
2024-02-14T07:25:42.329Z,7.05
2024-02-14T07:28:16.015Z,7.10
2024-02-14T07:30:44.876Z,7.90
2024-02-14T07:33:14.221Z,8.98
2024-02-14T07:35:44.166Z,8.15
2024-02-14T07:38:12.559Z,6.85
2024-02-14T07:40:42.525Z,8.95
2024-02-14T07:43:18.456Z,6.07
2024-02-14T07:45:47.292Z,5.90
2024-02-14T07:48:17.241Z,4.88
2024-02-14T07:50:46.431Z,5.50
2024-02-14T07:53:16.197Z,14.25
2024-02-14T07:55:45.252Z,9.05
2024-02-14T07:58:15.604Z,6.03
2024-02-14T08:00:44.507Z,8.25
2024-02-14T08:03:13.466Z,8.57
2024-02-14T08:05:42.989Z,6.53
2024-02-14T08:08:11.619Z,9.15
2024-02-14T08:10:40.745Z,8.35
2024-02-14T08:13:09.356Z,6.88
2024-02-14T08:15:42.445Z,7.93
2024-02-14T08:20:44.281Z,8.43
2024-02-14T08:23:13.061Z,10.07
2024-02-14T08:25:42.579Z,11.25
2024-02-14T08:28:12.047Z,7.10
2024-02-14T08:30:42.273Z,9.68
2024-02-14T08:33:12.710Z,9.75
2024-02-14T08:35:44.206Z,9.93
2024-02-14T08:38:13.375Z,9.80
2024-02-14T08:40:42.530Z,9.38
2024-02-14T08:43:11.365Z,2.88
2024-02-14T08:45:42.241Z,8.88
2024-02-14T08:48:11.220Z,8.05
2024-02-14T08:50:39.769Z,10.07
2024-02-14T08:53:08.852Z,8.07
2024-02-14T08:55:39.376Z,9.13
2024-02-14T08:58:08.090Z,11.50
2024-02-14T09:00:37.327Z,8.60
2024-02-14T09:03:10.851Z,9.45
2024-02-14T09:05:42.822Z,8.23
2024-02-14T09:08:12.092Z,6.35
2024-02-14T09:10:41.158Z,9.05
2024-02-14T09:13:10.814Z,3.08
2024-02-14T09:15:40.028Z,2.95
2024-02-14T09:18:11.353Z,9.38
2024-02-14T09:20:40.165Z,10.98
2024-02-14T09:23:09.783Z,7.50
2024-02-14T09:25:38.387Z,8.65
2024-02-14T09:28:08.555Z,7.93
2024-02-14T09:30:39.289Z,7.70
2024-02-14T09:33:13.244Z,9.70
2024-02-14T09:35:46.109Z,10.07
2024-02-14T09:38:15.565Z,8.75
2024-02-14T09:40:45.203Z,10.40
2024-02-14T09:43:26.060Z,7.47
2024-02-14T09:45:55.739Z,8.30
2024-02-14T09:48:29.584Z,9.15
2024-02-14T09:50:59.777Z,8.57
2024-02-14T09:53:29.132Z,8.40
2024-02-14T09:55:58.402Z,8.60
2024-02-14T09:58:29.716Z,8.77
2024-02-14T10:00:58.481Z,11.10
2024-02-14T10:03:29.205Z,7.85
2024-02-14T10:05:58.180Z,10.15
2024-02-14T10:08:29.610Z,10.27
2024-02-14T10:11:00.634Z,7.32
2024-02-14T10:13:32.896Z,8.43
2024-02-14T10:16:01.939Z,11.18
2024-02-14T10:18:35.171Z,8.95
2024-02-14T10:21:05.643Z,9.40
2024-02-14T10:23:35.905Z,9.80
2024-02-14T10:26:05.972Z,13.50
2024-02-14T10:28:43.629Z,9.25
2024-02-14T10:31:12.466Z,9.80
2024-02-14T10:33:49.101Z,8.85
2024-02-14T10:36:21.745Z,10.43
2024-02-14T10:38:53.712Z,10.40
2024-02-14T10:41:24.244Z,8.87
2024-02-14T10:43:53.424Z,9.65
2024-02-14T10:46:27.372Z,8.88
2024-02-14T10:49:04.153Z,11.75
2024-02-14T10:51:35.027Z,8.35
2024-02-14T10:54:18.227Z,9.52
2024-02-14T10:56:53.258Z,7.53
2024-02-14T10:59:24.012Z,8.63
2024-02-14T11:01:53.151Z,9.43
2024-02-14T11:04:24.461Z,13.00
2024-02-14T11:06:56.353Z,7.15
2024-02-14T11:09:26.166Z,10.90
2024-02-14T11:12:03.951Z,9.23
2024-02-14T11:14:37.027Z,11.10
2024-02-14T11:17:10.632Z,12.10
2024-02-14T11:19:43.277Z,10.25
2024-02-14T11:22:16.651Z,2.95
2024-02-14T11:24:48.535Z,9.63
2024-02-14T11:27:33.080Z,8.50
2024-02-14T11:30:05.154Z,8.43
2024-02-14T11:32:35.720Z,9.52
2024-02-14T11:35:09.617Z,9.77
2024-02-14T11:37:38.495Z,9.32
2024-02-14T11:40:08.514Z,7.53
2024-02-14T11:42:37.616Z,8.27
2024-02-14T11:45:07.635Z,9.88
2024-02-14T11:47:39.810Z,8.10
2024-02-14T11:50:12.738Z,7.88
2024-02-14T11:55:17.026Z,7.95
2024-02-14T11:57:49.817Z,9.52
2024-02-14T12:00:19.591Z,7.47
2024-02-14T12:02:48.616Z,10.73
2024-02-14T12:05:20.836Z,8.18
2024-02-14T12:07:51.086Z,8.60
2024-02-14T12:10:20.152Z,8.27
2024-02-14T12:12:48.992Z,6.55
2024-02-14T12:15:18.036Z,8.95
2024-02-14T12:17:49.487Z,6.93
2024-02-14T12:20:24.652Z,8.27
2024-02-14T12:22:53.753Z,6.85
2024-02-14T12:25:23.514Z,8.32
2024-02-14T12:27:55.593Z,8.85
2024-02-14T12:30:25.769Z,9.90
2024-02-14T12:33:09.336Z,8.75
2024-02-14T12:35:43.381Z,7.18
2024-02-14T12:38:12.553Z,10.38
2024-02-14T12:40:45.324Z,7.57
2024-02-14T12:43:17.255Z,7.80
2024-02-14T12:45:46.912Z,7.30
2024-02-14T12:48:16.813Z,8.90
2024-02-14T12:50:53.968Z,7.32
2024-02-14T12:53:22.716Z,8.82
2024-02-14T12:55:51.721Z,7.88
2024-02-14T12:58:20.482Z,9.15
2024-02-14T13:00:49.340Z,7.50
2024-02-14T13:03:19.846Z,7.72
2024-02-14T13:05:50.468Z,7.95
2024-02-14T13:08:20.399Z,8.20
2024-02-14T13:10:48.823Z,11.35
2024-02-14T13:13:17.893Z,7.38
2024-02-14T13:15:47.254Z,10.32
2024-02-14T13:18:17.327Z,6.78
2024-02-14T13:20:46.841Z,8.45
2024-02-14T13:23:18.839Z,7.03
2024-02-14T13:25:47.181Z,8.80
2024-02-14T13:28:16.372Z,9.93
2024-02-14T13:30:45.377Z,9.95
2024-02-14T13:33:13.921Z,7.10
2024-02-14T13:35:42.781Z,8.77
2024-02-14T13:38:11.962Z,8.25
2024-02-14T13:40:46.025Z,7.60
2024-02-14T13:43:17.533Z,6.22
2024-02-14T13:45:49.248Z,10.45
2024-02-14T13:48:18.315Z,7.95
2024-02-14T13:50:47.472Z,7.55
2024-02-14T13:53:18.105Z,7.65
2024-02-14T13:55:49.272Z,10.80
2024-02-14T13:58:18.644Z,11.30
2024-02-14T14:00:50.226Z,10.07
2024-02-14T14:03:19.292Z,14.90
2024-02-14T14:05:48.568Z,25.02
2024-02-14T14:08:17.236Z,10.25
2024-02-14T14:10:47.777Z,18.65
2024-02-14T14:13:18.537Z,7.55
2024-02-14T14:15:47.151Z,9.93
2024-02-14T14:18:15.754Z,7.28
2024-02-14T14:20:44.661Z,7.20
2024-02-14T14:23:14.148Z,7.45
2024-02-14T14:25:43.422Z,8.50
2024-02-14T14:28:15.812Z,7.50
2024-02-14T14:30:45.596Z,5.88
2024-02-14T14:33:18.060Z,9.25
2024-02-14T14:35:47.859Z,6.75
2024-02-14T14:38:16.224Z,3.88
2024-02-14T14:40:46.659Z,8.73
2024-02-14T14:43:17.356Z,6.35
2024-02-14T14:45:47.372Z,6.35
2024-02-14T14:48:16.916Z,5.43
2024-02-14T14:50:45.685Z,7.68
2024-02-14T14:53:14.469Z,7.18
2024-02-14T14:55:52.775Z,6.25
2024-02-14T14:58:25.845Z,6.25
2024-02-14T15:00:57.257Z,6.18
2024-02-14T15:03:25.641Z,7.25
2024-02-14T15:05:55.372Z,5.82
2024-02-14T15:08:27.087Z,6.65
2024-02-14T15:10:57.351Z,6.07
2024-02-14T15:13:28.904Z,7.20
2024-02-14T15:15:59.082Z,8.38
2024-02-14T15:18:27.879Z,6.68
2024-02-14T15:20:56.158Z,6.32
2024-02-14T15:23:24.440Z,5.70
2024-02-14T15:25:55.904Z,6.93
2024-02-14T15:28:27.549Z,8.48
2024-02-14T15:31:15.127Z,6.20
2024-02-14T15:33:43.959Z,6.32
2024-02-14T15:36:17.149Z,7.43
2024-02-14T15:38:45.729Z,7.05
2024-02-14T15:41:15.905Z,5.50
2024-02-14T15:43:50.409Z,5.22
2024-02-14T15:46:21.378Z,6.22
2024-02-14T15:48:50.237Z,6.82
2024-02-14T15:51:19.984Z,6.10
2024-02-14T15:53:49.701Z,6.35
2024-02-14T15:56:19.515Z,5.18
2024-02-14T15:58:51.058Z,5.65
2024-02-14T16:01:21.793Z,5.72
2024-02-14T16:03:50.505Z,7.90
2024-02-14T16:06:19.343Z,4.68
2024-02-14T16:08:48.179Z,5.50
2024-02-14T16:11:16.630Z,5.45
2024-02-14T16:13:44.894Z,5.35
2024-02-14T16:16:13.231Z,5.50
2024-02-14T16:18:43.644Z,5.90
2024-02-14T16:21:12.427Z,5.22
2024-02-14T16:23:44.894Z,5.57
2024-02-14T16:26:16.001Z,6.13
2024-02-14T16:28:45.666Z,4.93
2024-02-14T16:31:18.184Z,6.63
2024-02-14T16:33:48.261Z,5.55
2024-02-14T16:36:17.272Z,4.75
2024-02-14T16:38:46.319Z,5.72
2024-02-14T16:41:22.361Z,5.13
2024-02-14T16:43:55.911Z,7.25
2024-02-14T16:46:27.365Z,10.05
2024-02-14T16:49:00.488Z,6.43
2024-02-14T16:51:31.643Z,8.65
2024-02-14T16:54:21.164Z,8.00
2024-02-14T16:56:52.689Z,5.95
2024-02-14T16:59:25.043Z,8.82
2024-02-14T17:01:57.348Z,6.15
2024-02-14T17:04:35.728Z,8.30
2024-02-14T17:07:06.172Z,7.75
2024-02-14T17:09:36.858Z,6.88
2024-02-14T17:12:07.832Z,7.38
2024-02-14T17:14:44.781Z,7.95
2024-02-14T17:17:18.422Z,9.40
2024-02-14T17:19:54.496Z,8.98
2024-02-14T17:22:31.752Z,11.35
2024-02-14T17:25:18.365Z,8.60
2024-02-14T17:27:50.313Z,9.70
2024-02-14T17:30:22.871Z,11.18
2024-02-14T17:32:55.140Z,9.20
2024-02-14T17:35:26.203Z,9.38
2024-02-14T17:37:54.729Z,11.35
2024-02-14T17:40:23.201Z,10.82
2024-02-14T17:42:54.353Z,12.20
2024-02-14T17:45:27.576Z,10.15
2024-02-14T17:47:59.425Z,10.43
2024-02-14T17:50:31.535Z,13.35
2024-02-14T17:52:59.689Z,11.27
2024-02-14T17:55:28.229Z,17.52
2024-02-14T17:57:56.433Z,12.82
2024-02-14T18:00:24.750Z,13.65
2024-02-14T18:02:53.126Z,12.90
2024-02-14T18:05:21.817Z,13.02
2024-02-14T18:07:52.358Z,11.82
2024-02-14T18:10:21.332Z,14.88
2024-02-14T18:12:49.528Z,12.18
2024-02-14T18:15:17.626Z,12.45
2024-02-14T18:17:46.089Z,13.52
2024-02-14T18:20:14.950Z,12.60
2024-02-14T18:22:45.513Z,12.88
2024-02-14T18:25:16.438Z,12.70
2024-02-14T18:27:44.824Z,14.05
2024-02-14T18:30:13.638Z,14.93
2024-02-14T18:32:42.619Z,16.15
2024-02-14T18:35:11.212Z,15.38
2024-02-14T18:37:39.415Z,14.23
2024-02-14T18:40:09.488Z,13.05
2024-02-14T18:42:39.619Z,15.02
2024-02-14T18:45:10.472Z,16.00
2024-02-14T18:47:39.317Z,16.38
2024-02-14T18:50:08.596Z,16.55
2024-02-14T18:52:37.142Z,14.30
2024-02-14T18:55:06.838Z,16.20
2024-02-14T18:57:38.191Z,13.20
2024-02-14T19:00:11.414Z,13.88
2024-02-14T19:02:40.629Z,14.25
2024-02-14T19:05:10.785Z,17.55
2024-02-14T19:07:39.303Z,13.57
2024-02-14T19:10:08.610Z,18.45
2024-02-14T19:12:38.342Z,19.13
2024-02-14T19:15:07.796Z,16.20
2024-02-14T19:17:36.320Z,14.52
2024-02-14T19:20:07.356Z,18.92
2024-02-14T19:22:35.633Z,19.02
2024-02-14T19:25:03.801Z,15.95
2024-02-14T19:27:32.515Z,16.90
2024-02-14T19:30:02.381Z,13.35
2024-02-14T19:32:30.623Z,15.55
2024-02-14T19:34:59.376Z,15.65
2024-02-14T19:37:27.677Z,14.77
2024-02-14T19:39:55.754Z,14.95
2024-02-14T19:42:23.908Z,18.50
2024-02-14T19:44:52.224Z,14.73
2024-02-14T19:47:22.026Z,14.27
2024-02-14T19:49:50.453Z,18.25
2024-02-14T19:52:18.811Z,16.50
2024-02-14T19:54:46.918Z,16.98
2024-02-14T19:57:15.280Z,17.65
2024-02-14T19:59:43.612Z,18.05
2024-02-14T20:02:11.779Z,15.77
2024-02-14T20:04:42.743Z,18.20
2024-02-14T20:07:11.015Z,14.73
2024-02-14T20:09:39.344Z,17.70
2024-02-14T20:12:08.483Z,16.88
2024-02-14T20:14:36.632Z,18.05
2024-02-14T20:17:05.715Z,16.77
2024-02-14T20:19:34.214Z,17.45
2024-02-14T20:22:06.268Z,20.88
2024-02-14T20:24:34.783Z,17.83
2024-02-14T20:27:03.091Z,17.55
2024-02-14T20:29:31.613Z,22.80
2024-02-14T20:31:59.837Z,18.05
2024-02-14T20:34:28.191Z,20.23
2024-02-14T20:36:56.385Z,19.45
2024-02-14T20:39:26.292Z,18.00
2024-02-14T20:41:54.963Z,17.42
2024-02-14T20:44:23.482Z,18.58
2024-02-14T20:46:52.744Z,17.02
2024-02-14T20:49:21.287Z,16.70
2024-02-14T20:51:49.621Z,18.70
2024-02-14T20:54:17.943Z,17.92
2024-02-14T20:56:48.157Z,19.73
2024-02-14T20:59:17.268Z,16.52
2024-02-14T21:01:45.659Z,18.00
2024-02-14T21:04:14.474Z,19.60
2024-02-14T21:06:44.061Z,17.27
2024-02-14T21:09:12.279Z,21.17
2024-02-14T21:11:41.307Z,20.45
2024-02-14T21:14:11.480Z,21.65
2024-02-14T21:16:39.853Z,17.45
2024-02-14T21:19:08.073Z,23.33
2024-02-14T21:21:37.396Z,20.40
2024-02-14T21:24:06.457Z,22.38
2024-02-14T21:26:36.362Z,23.23
2024-02-14T21:29:04.917Z,20.70
2024-02-14T21:31:34.604Z,24.50
2024-02-14T21:34:04.618Z,22.83
2024-02-14T21:36:33.659Z,22.48
2024-02-14T21:39:04.862Z,21.17
2024-02-14T21:41:33.521Z,20.85
2024-02-14T21:44:02.087Z,23.60
2024-02-14T21:46:30.393Z,24.13
2024-02-14T21:49:00.110Z,25.95
2024-02-14T21:51:29.767Z,21.67
2024-02-14T21:53:57.986Z,21.80
2024-02-14T21:56:26.359Z,25.05
2024-02-14T21:58:54.394Z,24.65
2024-02-14T22:01:22.770Z,26.73
2024-02-14T22:03:51.433Z,24.45
2024-02-14T22:06:20.929Z,27.23
2024-02-14T22:08:49.783Z,28.80
2024-02-14T22:11:18.028Z,27.17
2024-02-14T22:13:48.845Z,25.08
2024-02-14T22:16:18.690Z,29.52
2024-02-14T22:18:49.054Z,26.48
2024-02-14T22:21:17.365Z,24.08
2024-02-14T22:23:47.373Z,27.60
2024-02-14T22:26:15.939Z,27.00
2024-02-14T22:28:44.377Z,26.63
2024-02-14T22:31:12.800Z,27.30
2024-02-14T22:33:40.877Z,24.95
2024-02-14T22:36:11.557Z,27.23
2024-02-14T22:38:39.686Z,26.42
2024-02-14T22:41:09.202Z,26.40
2024-02-14T22:43:37.248Z,24.92
2024-02-14T22:46:05.546Z,27.48
2024-02-14T22:48:33.620Z,24.55
2024-02-14T22:51:02.590Z,27.30
2024-02-14T22:53:30.545Z,30.45
2024-02-14T22:55:58.729Z,26.70
2024-02-14T22:58:28.657Z,27.17
2024-02-14T23:00:57.139Z,26.85
2024-02-14T23:03:25.780Z,28.52
2024-02-14T23:05:54.153Z,28.45
2024-02-14T23:08:22.760Z,26.23
2024-02-14T23:10:51.033Z,30.77
2024-02-14T23:13:19.766Z,26.65
2024-02-14T23:15:53.284Z,29.40
2024-02-14T23:18:22.157Z,25.83
2024-02-14T23:20:50.944Z,26.85
2024-02-14T23:23:21.947Z,25.30
2024-02-14T23:25:50.162Z,28.35
2024-02-14T23:28:17.503Z,25.40
2024-02-14T23:30:47.159Z,25.85
2024-02-14T23:33:17.457Z,24.25
2024-02-14T23:35:47.136Z,25.00
2024-02-14T23:38:15.557Z,26.08
2024-02-14T23:40:43.855Z,24.35
2024-02-14T23:43:14.226Z,25.48
2024-02-14T23:45:43.061Z,24.42
2024-02-14T23:48:12.230Z,24.90
2024-02-14T23:50:42.082Z,26.30
2024-02-14T23:53:10.364Z,24.50
2024-02-14T23:55:38.838Z,23.88
2024-02-14T23:58:06.997Z,23.35
